LZSL Airport Information

Runway Information
Runway 18 Length 7874 ft width 187 ft
Elevation 1044 ft Threshold 0 ft Heading 182
Runway 36 Length 7874 ft Width 187 ft
Elevation 1014 ft Threshold 0 ft Heading 2
Airport Frequencies
Type APP Name SLIAČ APPR Frequency 119.15 MHZ
Type TWR Name SLIAČ TOWE Frequency 122.9 MHZ
Airport Navaids
Type VOR-DME Name Sliac Frequency 114000 KHZ
Airport Weather Information & NOTAM
ADDS - METARS form results

(1748 UTC 17 August 2019)
Data provider http://aviationweather.gov/metar/data/
 
METAR text: LZSL 171730Z 31003KT CAVOK 20/14 Q1016
Conditions at: LZSL (SLIAC , SK) observed 1730 UTC 17 August 2019
Temperature: 20.0°C (68°F)
Dewpoint: 14.0°C (57°F) [RH = 68%]
Pressure (altimeter): 30.00 inches Hg (1016.0 mb)
Winds: from the NW (310 degrees) at 3 MPH (3 knots; 1.5 m/s)
Visibility: 6 or more miles (10+ km)
Ceiling: ceiling and visibility are OK
Clouds: unknown
Weather: no significant weather observed at this time

METAR text: LZSL 171700Z 26003KT CAVOK 22/12 Q1016
Conditions at: LZSL (SLIAC , SK) observed 1700 UTC 17 August 2019
Temperature: 22.0°C (72°F)
Dewpoint: 12.0°C (54°F) [RH = 53%]
Pressure (altimeter): 30.00 inches Hg (1016.0 mb)
Winds: from the W (260 degrees) at 3 MPH (3 knots; 1.5 m/s)
Visibility: 6 or more miles (10+ km)
Ceiling: ceiling and visibility are OK
Clouds: unknown
Weather: no significant weather observed at this time

Forecast for: LZSL (SLIAC , SK)
Text: TAF LZSL 171700Z 1718/1803 VRB02KT 9999 FEW040
Forecast period: 1800 to 1900 UTC 17 August 2019
Forecast type: FROM: standard forecast or significant change
Winds: variable direction winds at 2 MPH (2 knots; 1.0 m/s)
Visibility: 6 or more miles 10+ km)
Ceiling: at least 12,000 feet AGL
Clouds: few clouds at 4000 feet AGL
Weather: no significant weather forecast for this period
Text: BECMG 1719/1720 FEW050 BKN100
Forecast period: 1900 UTC 17 August 2019 to 0300 UTC 18 August 2019
Forecast type: BECOMING: Conditions expected to become as follows by 2000 UTC 17 August 2019
Winds: variable direction winds at 2 MPH (2 knots; 1.0 m/s)
Visibility: 6 or more miles 10+ km)
Ceiling: 10000 feet AGL
Clouds: few clouds at 5000 feet AGL
broken clouds at 10000 feet AGL
Weather: no significant weather forecast for this period